Time;durP1;ratioP1;P1;durP2;ratioP2;P2;SDS_P1;SDS_P2;PMS_P1;PMS_P2;Temp;Humidity;BMP_temperature;BMP_pressure;BME280_temperature;BME280_humidity;BME280_pressure;Samples;Min_cycle;Max_cycle;Signal;HPM_P1;HPM_P2
2021/12/20 00:02:13;;;;;;;27.13;11.30;;;;;;;;;;5031757;28;20499;-64
2021/12/20 00:04:40;;;;;;;23.83;10.23;;;;;;;;;;5031761;28;20052;-64
2021/12/20 00:07:09;;;;;;;26.80;10.02;;;;;;;;;;5031914;28;20045;-64
2021/12/20 00:09:36;;;;;;;28.55;10.80;;;;;;;;;;5031681;28;20056;-64
2021/12/20 00:12:04;;;;;;;25.02;11.45;;;;;;;;;;5031733;28;20049;-64
2021/12/20 00:14:31;;;;;;;23.95;10.27;;;;;;;;;;5031631;28;20418;-64
2021/12/20 00:16:58;;;;;;;25.48;9.90;;;;;;;;;;5031713;28;20049;-64
2021/12/20 00:19:25;;;;;;;21.65;10.13;;;;;;;;;;5031652;28;20526;-63
2021/12/20 00:21:52;;;;;;;23.73;10.43;;;;;;;;;;5032167;28;20518;-65
2021/12/20 00:24:21;;;;;;;23.13;9.65;;;;;;;;;;5031605;28;20051;-64
2021/12/20 00:26:48;;;;;;;21.38;9.63;;;;;;;;;;5031812;28;20049;-64
2021/12/20 00:29:15;;;;;;;30.35;11.15;;;;;;;;;;5031486;28;20391;-64
2021/12/20 00:31:42;;;;;;;24.00;10.27;;;;;;;;;;5031835;28;20046;-64
2021/12/20 00:34:09;;;;;;;25.55;11.00;;;;;;;;;;5031746;28;20051;-64
2021/12/20 00:36:36;;;;;;;25.05;10.65;;;;;;;;;;5031607;28;20061;-65
2021/12/20 00:41:58;;;;;;;24.08;10.23;;;;;;;;;;4995942;28;20076;-64
2021/12/20 00:44:25;;;;;;;27.55;11.20;;;;;;;;;;5031442;28;20049;-64
2021/12/20 00:46:52;;;;;;;25.52;10.23;;;;;;;;;;5031589;28;20041;-64
2021/12/20 00:49:18;;;;;;;22.23;9.50;;;;;;;;;;5034480;28;20058;-64
2021/12/20 00:51:45;;;;;;;23.17;9.88;;;;;;;;;;5035304;28;20518;-64
2021/12/20 00:54:12;;;;;;;23.27;10.00;;;;;;;;;;5035385;28;20056;-65
2021/12/20 00:56:39;;;;;;;26.73;10.30;;;;;;;;;;5035327;28;20067;-64
2021/12/20 00:59:08;;;;;;;27.30;10.07;;;;;;;;;;5035081;28;20049;-64
2021/12/20 01:01:35;;;;;;;28.85;10.63;;;;;;;;;;5034993;28;20136;-64
2021/12/20 01:04:02;;;;;;;27.02;10.60;;;;;;;;;;5035049;28;20055;-64
2021/12/20 01:06:30;;;;;;;25.15;10.38;;;;;;;;;;5035043;28;20041;-64
2021/12/20 01:08:57;;;;;;;27.80;11.90;;;;;;;;;;5034723;28;20049;-64
2021/12/20 01:11:26;;;;;;;22.63;9.43;;;;;;;;;;5035049;28;20529;-65
2021/12/20 01:13:54;;;;;;;27.20;10.43;;;;;;;;;;5053773;22;20923;-79
2021/12/20 01:16:30;;;;;;;26.33;9.88;;;;;;;;;;5054205;28;20049;-77
2021/12/20 01:18:57;;;;;;;23.40;10.23;;;;;;;;;;5065571;28;20067;-78
2021/12/20 01:21:25;;;;;;;23.95;10.18;;;;;;;;;;5071101;28;20041;-78
2021/12/20 01:23:52;;;;;;;27.20;9.82;;;;;;;;;;5069856;28;20049;-77
2021/12/20 01:26:19;;;;;;;29.45;11.98;;;;;;;;;;5063542;28;20112;-78
2021/12/20 01:28:45;;;;;;;28.40;11.52;;;;;;;;;;5056086;28;20384;-78
2021/12/20 01:31:12;;;;;;;30.63;10.48;;;;;;;;;;5055754;28;20048;-78
2021/12/20 01:33:40;;;;;;;26.08;10.77;;;;;;;;;;5055287;28;20454;-78
2021/12/20 01:36:07;;;;;;;27.45;10.55;;;;;;;;;;5055215;28;20045;-78
2021/12/20 01:38:34;;;;;;;26.05;10.52;;;;;;;;;;5054918;28;20049;-78
2021/12/20 01:41:01;;;;;;;26.35;10.60;;;;;;;;;;5055006;28;20045;-78
2021/12/20 01:43:28;;;;;;;26.45;10.27;;;;;;;;;;5054584;28;20079;-78
2021/12/20 01:45:54;;;;;;;25.85;11.23;;;;;;;;;;5054389;28;20045;-78
2021/12/20 01:48:22;;;;;;;28.02;10.23;;;;;;;;;;5054500;28;20617;-78
2021/12/20 01:51:16;;;;;;;24.55;11.02;;;;;;;;;;5054910;28;20049;-77
2021/12/20 01:53:43;;;;;;;26.50;10.02;;;;;;;;;;5054627;28;20049;-77
2021/12/20 01:56:10;;;;;;;25.08;10.95;;;;;;;;;;5055818;28;20056;-79
2021/12/20 01:58:38;;;;;;;27.73;10.73;;;;;;;;;;5055292;28;20102;-79
2021/12/20 02:01:20;;;;;;;24.05;10.68;;;;;;;;;;5057092;28;20053;-79
2021/12/20 02:03:52;;;;;;;27.02;11.35;;;;;;;;;;5054825;28;20136;-79
2021/12/20 02:06:26;;;;;;;28.08;10.52;;;;;;;;;;5055168;28;20048;-79
2021/12/20 02:08:53;;;;;;;23.50;9.65;;;;;;;;;;5055131;28;20107;-79
2021/12/20 02:11:21;;;;;;;23.85;10.23;;;;;;;;;;5055081;28;20095;-79
2021/12/20 02:13:49;;;;;;;22.70;9.85;;;;;;;;;;5054600;28;20122;-79
2021/12/20 02:16:17;;;;;;;29.05;11.60;;;;;;;;;;5055178;28;20446;-78
2021/12/20 02:18:44;;;;;;;29.77;10.50;;;;;;;;;;5056763;28;20102;-79
2021/12/20 02:21:12;;;;;;;26.33;10.15;;;;;;;;;;5057476;28;20189;-79
2021/12/20 02:23:39;;;;;;;23.38;9.57;;;;;;;;;;5055486;28;20045;-79
2021/12/20 02:26:06;;;;;;;23.48;10.30;;;;;;;;;;5054262;28;20049;-79
2021/12/20 02:28:38;;;;;;;23.00;9.38;;;;;;;;;;5053672;28;20515;-79
2021/12/20 02:39:35;;;;;;;26.33;9.82;;;;;;;;;;5011666;28;20122;-79
2021/12/20 02:42:01;;;;;;;25.77;10.23;;;;;;;;;;5043198;28;20048;-79
2021/12/20 02:44:29;;;;;;;26.15;10.68;;;;;;;;;;5053644;28;20103;-79
2021/12/20 02:47:14;;;;;;;26.95;10.75;;;;;;;;;;5053975;28;20526;-79
2021/12/20 02:49:41;;;;;;;25.83;10.25;;;;;;;;;;5054012;28;20055;-79
2021/12/20 02:52:10;;;;;;;26.15;10.40;;;;;;;;;;5054800;28;20052;-79
2021/12/20 02:54:37;;;;;;;26.85;10.20;;;;;;;;;;5053849;28;20087;-79
2021/12/20 02:57:05;;;;;;;27.10;10.43;;;;;;;;;;5053849;28;20103;-79
2021/12/20 02:59:32;;;;;;;26.30;10.63;;;;;;;;;;5053453;28;20443;-79
2021/12/20 03:02:02;;;;;;;25.38;10.75;;;;;;;;;;5053677;28;20103;-79
2021/12/20 03:04:29;;;;;;;25.92;10.65;;;;;;;;;;5053579;28;20098;-79
2021/12/20 03:06:58;;;;;;;27.38;11.23;;;;;;;;;;5053362;28;20556;-79
2021/12/20 03:09:31;;;;;;;25.33;9.95;;;;;;;;;;5053576;28;20103;-79
2021/12/20 03:11:59;;;;;;;25.08;10.02;;;;;;;;;;5053397;28;20110;-79
2021/12/20 03:14:32;;;;;;;25.27;10.65;;;;;;;;;;5053100;28;20426;-79
2021/12/20 03:17:00;;;;;;;22.35;10.30;;;;;;;;;;5062764;28;20049;-78
2021/12/20 03:19:29;;;;;;;24.73;10.98;;;;;;;;;;5063600;28;20103;-78
2021/12/20 03:21:56;;;;;;;22.77;9.93;;;;;;;;;;5054884;28;20103;-79
2021/12/20 03:24:23;;;;;;;25.42;9.50;;;;;;;;;;5054099;28;20052;-79
2021/12/20 03:26:51;;;;;;;26.85;9.80;;;;;;;;;;5053843;28;20102;-79
2021/12/20 03:29:18;;;;;;;23.90;10.50;;;;;;;;;;5053375;28;20049;-79
2021/12/20 03:31:45;;;;;;;26.80;10.85;;;;;;;;;;5053939;28;20049;-79
2021/12/20 03:34:12;;;;;;;21.63;8.93;;;;;;;;;;5053588;28;20373;-79
2021/12/20 03:36:39;;;;;;;26.08;10.07;;;;;;;;;;5053732;28;20061;-79
2021/12/20 03:39:08;;;;;;;24.13;10.23;;;;;;;;;;5053145;28;20045;-79
2021/12/20 03:41:36;;;;;;;24.55;10.52;;;;;;;;;;5053091;28;20385;-79
2021/12/20 03:44:05;;;;;;;25.85;9.98;;;;;;;;;;5053091;28;20045;-79
2021/12/20 03:46:31;;;;;;;23.45;9.48;;;;;;;;;;5053067;28;20048;-79
2021/12/20 03:48:59;;;;;;;29.52;11.18;;;;;;;;;;5052953;28;20045;-79
2021/12/20 03:51:26;;;;;;;23.48;10.38;;;;;;;;;;5052664;28;20518;-79
2021/12/20 03:53:52;;;;;;;27.05;10.10;;;;;;;;;;5052972;28;20569;-79
2021/12/20 03:56:19;;;;;;;21.25;9.13;;;;;;;;;;5053053;28;20053;-79
2021/12/20 03:58:46;;;;;;;25.83;10.48;;;;;;;;;;5052645;28;20049;-79
2021/12/20 04:01:15;;;;;;;26.80;9.52;;;;;;;;;;5053361;28;20045;-79
2021/12/20 04:03:43;;;;;;;27.00;10.88;;;;;;;;;;5053052;28;20045;-79
2021/12/20 04:06:12;;;;;;;27.50;10.75;;;;;;;;;;5052596;28;20415;-79
2021/12/20 04:08:40;;;;;;;25.95;10.25;;;;;;;;;;5054364;28;20090;-79
2021/12/20 04:11:07;;;;;;;23.88;9.80;;;;;;;;;;5053380;28;20102;-79
2021/12/20 04:13:34;;;;;;;25.45;9.75;;;;;;;;;;5052759;28;20045;-79
2021/12/20 04:16:01;;;;;;;25.05;9.98;;;;;;;;;;5055284;28;20470;-78
2021/12/20 04:18:31;;;;;;;23.75;9.68;;;;;;;;;;5068965;28;20462;-78
2021/12/20 04:20:58;;;;;;;27.05;11.68;;;;;;;;;;5068930;28;20075;-79
2021/12/20 04:23:24;;;;;;;26.73;10.55;;;;;;;;;;5071399;28;20114;-80
2021/12/20 04:25:51;;;;;;;25.67;9.90;;;;;;;;;;5059594;28;20041;-79
2021/12/20 04:28:18;;;;;;;26.55;10.43;;;;;;;;;;5057964;28;20045;-79
2021/12/20 04:30:45;;;;;;;25.02;10.40;;;;;;;;;;5057359;28;20503;-79
2021/12/20 04:33:11;;;;;;;23.73;9.70;;;;;;;;;;5056843;28;20045;-80
2021/12/20 04:35:40;;;;;;;23.92;10.10;;;;;;;;;;5057199;28;20045;-79
2021/12/20 04:38:08;;;;;;;24.10;10.10;;;;;;;;;;5056922;28;20510;-78
2021/12/20 04:40:35;;;;;;;27.05;11.00;;;;;;;;;;5056006;28;20159;-77
2021/12/20 04:43:02;;;;;;;29.10;11.35;;;;;;;;;;5056491;28;20118;-78
2021/12/20 04:45:30;;;;;;;22.15;9.90;;;;;;;;;;5055959;28;20530;-78
2021/12/20 04:47:57;;;;;;;28.13;10.25;;;;;;;;;;5055455;28;20450;-78
2021/12/20 04:50:25;;;;;;;24.98;9.45;;;;;;;;;;5057200;28;20496;-78
2021/12/20 04:52:55;;;;;;;27.95;10.68;;;;;;;;;;5056616;28;20095;-78
2021/12/20 04:55:22;;;;;;;26.15;10.88;;;;;;;;;;5055733;28;20049;-79
2021/12/20 04:57:50;;;;;;;21.23;9.07;;;;;;;;;;5055220;28;20098;-78
2021/12/20 05:00:19;;;;;;;25.88;10.77;;;;;;;;;;5055463;28;20045;-78
2021/12/20 05:02:46;;;;;;;26.27;9.88;;;;;;;;;;5055375;28;20076;-78
2021/12/20 05:05:14;;;;;;;25.27;9.77;;;;;;;;;;5055156;28;20450;-78
2021/12/20 05:07:41;;;;;;;22.23;9.48;;;;;;;;;;5055805;28;20049;-79
2021/12/20 05:10:14;;;;;;;25.77;9.75;;;;;;;;;;5055731;28;20045;-80
2021/12/20 05:12:41;;;;;;;24.63;9.85;;;;;;;;;;5055760;28;20052;-79
2021/12/20 05:15:09;;;;;;;23.75;8.93;;;;;;;;;;5056023;28;20091;-79
2021/12/20 05:17:36;;;;;;;23.55;9.57;;;;;;;;;;5055674;28;20045;-79
2021/12/20 05:20:04;;;;;;;26.05;10.23;;;;;;;;;;5055286;28;20506;-79
2021/12/20 05:22:31;;;;;;;22.50;8.88;;;;;;;;;;5056212;28;20056;-79
2021/12/20 05:24:58;;;;;;;25.48;10.10;;;;;;;;;;5059179;28;20048;-78
2021/12/20 05:27:26;;;;;;;25.98;10.23;;;;;;;;;;5059081;28;20103;-78
2021/12/20 05:29:53;;;;;;;18.55;9.23;;;;;;;;;;5058383;28;20061;-79
2021/12/20 05:32:20;;;;;;;24.38;10.07;;;;;;;;;;5058715;28;20474;-80
2021/12/20 05:34:47;;;;;;;21.15;9.35;;;;;;;;;;5055074;28;20110;-79
2021/12/20 05:37:16;;;;;;;25.58;10.25;;;;;;;;;;5060913;28;20551;-80
2021/12/20 05:39:43;;;;;;;23.55;9.73;;;;;;;;;;5060655;28;20419;-81
2021/12/20 05:42:09;;;;;;;22.80;9.10;;;;;;;;;;5061126;28;20045;-80
2021/12/20 05:44:38;;;;;;;22.05;9.48;;;;;;;;;;5060756;28;20099;-80
2021/12/20 05:47:05;;;;;;;24.30;9.77;;;;;;;;;;5060327;28;20048;-80
2021/12/20 05:49:32;;;;;;;23.30;9.00;;;;;;;;;;5059865;28;20459;-80
2021/12/20 05:52:00;;;;;;;25.75;10.35;;;;;;;;;;5060589;28;20127;-80
2021/12/20 05:54:27;;;;;;;23.50;9.68;;;;;;;;;;5063309;28;20048;-80
2021/12/20 05:56:54;;;;;;;23.08;9.75;;;;;;;;;;5070902;28;20048;-80
2021/12/20 05:59:21;;;;;;;24.20;9.98;;;;;;;;;;5061511;28;20048;-81
2021/12/20 06:01:49;;;;;;;26.67;10.05;;;;;;;;;;5062840;28;20049;-81
2021/12/20 06:04:16;;;;;;;23.60;10.00;;;;;;;;;;5062350;28;20052;-80
2021/12/20 06:06:43;;;;;;;24.40;9.77;;;;;;;;;;5072206;28;20048;-78
2021/12/20 06:09:10;;;;;;;23.75;10.05;;;;;;;;;;5076521;28;20049;-78
2021/12/20 06:11:36;;;;;;;23.42;9.63;;;;;;;;;;5064684;28;20054;-80
2021/12/20 06:14:03;;;;;;;22.80;10.63;;;;;;;;;;5061430;28;20060;-80
2021/12/20 06:16:30;;;;;;;24.63;10.25;;;;;;;;;;5061952;28;20053;-80
2021/12/20 06:18:58;;;;;;;24.50;10.65;;;;;;;;;;5061749;28;20041;-80
2021/12/20 06:21:25;;;;;;;25.55;10.55;;;;;;;;;;5060419;28;20057;-79
2021/12/20 06:23:52;;;;;;;27.02;10.25;;;;;;;;;;5059653;28;20056;-80
2021/12/20 06:26:23;;;;;;;23.83;10.07;;;;;;;;;;5060519;28;20041;-80
2021/12/20 06:28:53;;;;;;;24.77;10.02;;;;;;;;;;5060389;28;20118;-78
2021/12/20 06:31:20;;;;;;;26.52;10.13;;;;;;;;;;5060608;28;20479;-80
2021/12/20 06:33:47;;;;;;;23.98;9.75;;;;;;;;;;5059290;28;20045;-81
2021/12/20 06:36:15;;;;;;;28.83;11.07;;;;;;;;;;5058207;28;20045;-80
2021/12/20 06:38:45;;;;;;;26.13;10.40;;;;;;;;;;5058800;28;20049;-80
2021/12/20 06:41:13;;;;;;;25.83;9.57;;;;;;;;;;5059706;28;20412;-80
2021/12/20 06:43:40;;;;;;;24.55;9.77;;;;;;;;;;5058329;28;20486;-80
2021/12/20 06:46:07;;;;;;;27.70;10.43;;;;;;;;;;5054537;28;20411;-80
2021/12/20 06:48:33;;;;;;;24.58;10.05;;;;;;;;;;5070046;28;20041;-80
2021/12/20 06:51:00;;;;;;;27.25;11.52;;;;;;;;;;5071005;28;20071;-80
2021/12/20 06:53:28;;;;;;;25.90;10.68;;;;;;;;;;5072248;28;20474;-80
2021/12/20 06:55:55;;;;;;;26.90;10.05;;;;;;;;;;5071428;28;20072;-80
2021/12/20 06:58:23;;;;;;;25.42;10.80;;;;;;;;;;5068530;28;20075;-80
2021/12/20 07:00:51;;;;;;;22.48;9.77;;;;;;;;;;5071033;28;20049;-80
2021/12/20 07:03:18;;;;;;;25.80;9.65;;;;;;;;;;5070858;28;20107;-80
2021/12/20 07:05:45;;;;;;;28.73;11.52;;;;;;;;;;5070676;28;20115;-80
2021/12/20 07:08:12;;;;;;;28.63;12.18;;;;;;;;;;5069721;28;20045;-80
2021/12/20 07:10:40;;;;;;;22.90;9.48;;;;;;;;;;5069807;28;20041;-80
2021/12/20 07:13:07;;;;;;;29.35;11.13;;;;;;;;;;5069837;28;20059;-80
2021/12/20 07:15:34;;;;;;;25.95;10.85;;;;;;;;;;5060476;22;20045;-78
2021/12/20 07:18:01;;;;;;;24.05;9.32;;;;;;;;;;5034473;28;20045;-80
2021/12/20 07:20:28;;;;;;;25.98;10.88;;;;;;;;;;5034117;28;20046;-78
2021/12/20 07:22:55;;;;;;;27.45;11.48;;;;;;;;;;5034731;28;20095;-77
2021/12/20 07:25:22;;;;;;;23.83;10.80;;;;;;;;;;5034775;28;20119;-80
2021/12/20 07:27:51;;;;;;;25.50;10.60;;;;;;;;;;5033807;28;20124;-79
2021/12/20 07:30:19;;;;;;;25.92;10.25;;;;;;;;;;5033432;28;20046;-80
2021/12/20 07:32:48;;;;;;;26.45;11.45;;;;;;;;;;5034168;28;20115;-80
2021/12/20 07:35:15;;;;;;;30.05;11.68;;;;;;;;;;5033929;28;20451;-80
2021/12/20 07:37:42;;;;;;;25.20;10.60;;;;;;;;;;5033208;28;20111;-78
2021/12/20 07:40:10;;;;;;;24.45;9.90;;;;;;;;;;5034237;28;20060;-78
2021/12/20 07:42:37;;;;;;;26.63;11.40;;;;;;;;;;5034568;28;20057;-80
2021/12/20 07:45:07;;;;;;;26.63;11.95;;;;;;;;;;5033080;28;20046;-79
2021/12/20 07:47:34;;;;;;;25.85;10.10;;;;;;;;;;5034539;28;20050;-79
2021/12/20 07:50:01;;;;;;;26.08;10.13;;;;;;;;;;5034437;28;20045;-79
2021/12/20 07:52:28;;;;;;;26.85;11.15;;;;;;;;;;5034549;28;20559;-78
2021/12/20 07:54:54;;;;;;;29.25;11.82;;;;;;;;;;5034270;28;20045;-79
2021/12/20 07:57:21;;;;;;;25.65;10.75;;;;;;;;;;5039353;28;20045;-78
2021/12/20 07:59:48;;;;;;;25.23;11.18;;;;;;;;;;5040094;28;20119;-78
2021/12/20 08:02:16;;;;;;;27.25;10.70;;;;;;;;;;5034673;28;20463;-81
2021/12/20 08:04:48;;;;;;;26.77;10.43;;;;;;;;;;5033659;28;20115;-79
2021/12/20 08:07:15;;;;;;;25.25;11.52;;;;;;;;;;5029664;28;20045;-79
2021/12/20 08:09:42;;;;;;;24.10;10.55;;;;;;;;;;5031626;28;20077;-78
2021/12/20 08:12:10;;;;;;;29.02;11.07;;;;;;;;;;5032297;28;20049;-78
2021/12/20 08:14:37;;;;;;;29.15;11.35;;;;;;;;;;5030890;28;20045;-78
2021/12/20 08:17:04;;;;;;;28.88;12.25;;;;;;;;;;5033035;28;20046;-79
2021/12/20 08:19:32;;;;;;;26.10;11.13;;;;;;;;;;5040334;28;20466;-78
2021/12/20 08:21:59;;;;;;;25.67;11.27;;;;;;;;;;5040606;28;20122;-78
2021/12/20 08:24:26;;;;;;;27.63;11.15;;;;;;;;;;5041010;28;20610;-78
2021/12/20 08:26:52;;;;;;;25.10;10.80;;;;;;;;;;5041104;28;20507;-78
2021/12/20 08:29:23;;;;;;;29.90;11.15;;;;;;;;;;5046504;28;20050;-78
2021/12/20 08:31:49;;;;;;;26.75;12.27;;;;;;;;;;5038361;28;20504;-78
2021/12/20 08:34:16;;;;;;;28.13;11.95;;;;;;;;;;5035110;28;20072;-79
2021/12/20 08:36:44;;;;;;;29.98;11.75;;;;;;;;;;5035296;28;20107;-78
2021/12/20 08:39:15;;;;;;;28.73;12.45;;;;;;;;;;5036955;28;20065;-79
2021/12/20 08:41:42;;;;;;;29.75;11.52;;;;;;;;;;5036666;28;20511;-78
2021/12/20 08:44:09;;;;;;;25.88;11.95;;;;;;;;;;5038710;28;20045;-78
2021/12/20 08:46:36;;;;;;;25.70;11.57;;;;;;;;;;5042096;28;20049;-79
2021/12/20 08:49:03;;;;;;;28.80;11.68;;;;;;;;;;5042940;28;20049;-78
2021/12/20 08:51:30;;;;;;;29.73;11.43;;;;;;;;;;5043236;28;20041;-79
2021/12/20 08:53:58;;;;;;;27.10;11.85;;;;;;;;;;5043302;28;20072;-78
2021/12/20 08:56:26;;;;;;;28.45;11.88;;;;;;;;;;5042182;28;20049;-79
2021/12/20 08:58:52;;;;;;;26.10;11.63;;;;;;;;;;5041802;28;20045;-79
2021/12/20 09:01:19;;;;;;;29.13;11.05;;;;;;;;;;5041427;28;20424;-79
2021/12/20 09:03:46;;;;;;;30.33;12.60;;;;;;;;;;5041481;28;20045;-79
2021/12/20 09:06:13;;;;;;;25.42;11.40;;;;;;;;;;5043194;28;20102;-79
2021/12/20 09:08:42;;;;;;;29.38;11.57;;;;;;;;;;5041467;28;20049;-79
2021/12/20 09:11:10;;;;;;;46.13;17.02;;;;;;;;;;5046316;28;20077;-79
2021/12/20 09:13:37;;;;;;;31.27;11.73;;;;;;;;;;5046033;28;20042;-78
2021/12/20 09:16:04;;;;;;;27.00;11.80;;;;;;;;;;5045269;28;20080;-79
2021/12/20 09:18:31;;;;;;;29.83;11.35;;;;;;;;;;5044487;28;20054;-78
2021/12/20 09:20:58;;;;;;;27.92;12.07;;;;;;;;;;5044038;28;20046;-79
2021/12/20 09:23:28;;;;;;;29.35;12.15;;;;;;;;;;5044150;28;20049;-78
2021/12/20 09:25:55;;;;;;;31.38;13.77;;;;;;;;;;5043408;28;20049;-79
2021/12/20 09:28:23;;;;;;;30.00;13.52;;;;;;;;;;5035358;28;20404;-78
2021/12/20 09:30:50;;;;;;;34.42;13.30;;;;;;;;;;5036351;28;20049;-78
2021/12/20 09:33:17;;;;;;;29.35;12.73;;;;;;;;;;5035287;28;20049;-79
2021/12/20 09:35:44;;;;;;;26.90;11.13;;;;;;;;;;5035624;28;20053;-80
2021/12/20 09:38:16;;;;;;;27.70;12.68;;;;;;;;;;5035128;28;20140;-79
2021/12/20 09:41:01;;;;;;;28.27;11.15;;;;;;;;;;5034782;28;20445;-79
2021/12/20 09:43:31;;;;;;;30.38;11.40;;;;;;;;;;5035569;28;20250;-79
2021/12/20 09:45:58;;;;;;;30.17;12.52;;;;;;;;;;5035823;28;20055;-79
2021/12/20 09:48:26;;;;;;;28.45;11.65;;;;;;;;;;5035587;28;20091;-77
2021/12/20 09:50:52;;;;;;;29.63;13.10;;;;;;;;;;5036155;28;20107;-78
2021/12/20 09:53:19;;;;;;;31.63;12.27;;;;;;;;;;5040292;28;20057;-78
2021/12/20 09:55:47;;;;;;;29.50;12.27;;;;;;;;;;5040025;28;20049;-79
2021/12/20 09:58:15;;;;;;;28.10;11.77;;;;;;;;;;5041126;28;20111;-78
2021/12/20 10:00:43;;;;;;;30.70;11.77;;;;;;;;;;5039585;28;20405;-77
2021/12/20 10:03:13;;;;;;;27.67;11.90;;;;;;;;;;5045240;28;20050;-78
2021/12/20 10:05:40;;;;;;;28.90;12.32;;;;;;;;;;5048028;28;20045;-77
2021/12/20 10:08:14;;;;;;;28.85;12.88;;;;;;;;;;5047813;28;20041;-77
2021/12/20 10:10:43;;;;;;;29.63;12.57;;;;;;;;;;5050169;28;20038;-78
2021/12/20 10:13:21;;;;;;;28.17;12.05;;;;;;;;;;5050204;28;20042;-79
2021/12/20 10:15:49;;;;;;;26.63;10.20;;;;;;;;;;5046419;28;20045;-78
2021/12/20 10:18:16;;;;;;;29.95;12.45;;;;;;;;;;5047601;28;20477;-78
2021/12/20 10:20:49;;;;;;;28.42;11.80;;;;;;;;;;5046496;28;20068;-78
2021/12/20 10:23:20;;;;;;;29.05;12.27;;;;;;;;;;5047765;28;20115;-78
2021/12/20 10:25:48;;;;;;;26.23;10.88;;;;;;;;;;5047341;28;20050;-78
2021/12/20 10:28:18;;;;;;;30.98;12.13;;;;;;;;;;5047474;28;20072;-77
2021/12/20 10:30:47;;;;;;;32.95;12.88;;;;;;;;;;5047750;28;20046;-78
2021/12/20 10:33:17;;;;;;;26.92;11.35;;;;;;;;;;5046849;28;20072;-78
2021/12/20 10:35:47;;;;;;;27.93;12.40;;;;;;;;;;5047259;28;20107;-79
2021/12/20 10:38:30;;;;;;;26.67;10.77;;;;;;;;;;5047574;28;20105;-78
2021/12/20 10:41:00;;;;;;;31.08;12.68;;;;;;;;;;5047084;28;20287;-78
2021/12/20 10:43:30;;;;;;;28.48;12.77;;;;;;;;;;5046765;28;20045;-79
2021/12/20 10:45:57;;;;;;;29.95;11.68;;;;;;;;;;5047306;28;20113;-79
2021/12/20 10:48:32;;;;;;;28.80;13.07;;;;;;;;;;5040659;28;20073;-80
2021/12/20 10:50:59;;;;;;;26.02;12.18;;;;;;;;;;5038084;28;20415;-79
2021/12/20 10:53:27;;;;;;;39.45;17.85;;;;;;;;;;5037021;28;20110;-79
2021/12/20 10:55:56;;;;;;;32.47;14.60;;;;;;;;;;5037190;28;20050;-79
2021/12/20 10:58:34;;;;;;;34.70;14.55;;;;;;;;;;5042067;28;20060;-79
2021/12/20 11:01:15;;;;;;;30.00;13.18;;;;;;;;;;5036661;28;20436;-80
2021/12/20 11:03:45;;;;;;;34.67;13.50;;;;;;;;;;5024992;28;20045;-79
2021/12/20 11:06:38;;;;;;;30.23;12.98;;;;;;;;;;5020454;28;20137;-79
2021/12/20 11:09:15;;;;;;;28.52;11.23;;;;;;;;;;5019752;28;20100;-82
2021/12/20 11:11:47;;;;;;;26.02;12.15;;;;;;;;;;5018892;28;20060;-78
2021/12/20 11:14:14;;;;;;;24.95;10.90;;;;;;;;;;5028491;28;20049;-80
2021/12/20 11:16:44;;;;;;;22.15;10.40;;;;;;;;;;5037407;28;20049;-77
2021/12/20 11:19:15;;;;;;;24.50;11.15;;;;;;;;;;5038104;28;20053;-82
2021/12/20 11:21:48;;;;;;;23.75;10.27;;;;;;;;;;5038619;28;20041;-80
2021/12/20 11:24:17;;;;;;;26.80;11.50;;;;;;;;;;5036559;28;20106;-80
2021/12/20 11:26:45;;;;;;;27.83;12.68;;;;;;;;;;5037568;28;20041;-79
2021/12/20 11:29:12;;;;;;;27.05;11.52;;;;;;;;;;5034620;28;20041;-79
2021/12/20 11:31:39;;;;;;;29.42;10.98;;;;;;;;;;5035112;28;20088;-83
2021/12/20 11:34:07;;;;;;;24.40;10.43;;;;;;;;;;5034311;28;20052;-80
2021/12/20 11:36:36;;;;;;;24.40;10.02;;;;;;;;;;5032548;28;20064;-79
2021/12/20 11:39:04;;;;;;;21.02;9.30;;;;;;;;;;5032253;28;20566;-79
2021/12/20 11:41:31;;;;;;;23.38;9.68;;;;;;;;;;5030254;28;20038;-79
2021/12/20 11:44:00;;;;;;;25.55;10.15;;;;;;;;;;5032781;28;20050;-79
2021/12/20 11:46:31;;;;;;;24.88;10.38;;;;;;;;;;5033109;28;20083;-81
2021/12/20 11:48:59;;;;;;;;;;;;;;;;;;5033277;28;20041;-80
2021/12/20 11:51:26;;;;;;;18.90;8.60;;;;;;;;;;5038078;28;19921;-80
2021/12/20 11:53:54;;;;;;;20.52;8.48;;;;;;;;;;5035500;28;20049;-77
2021/12/20 11:56:36;;;;;;;16.13;8.40;;;;;;;;;;5032184;28;20511;-80
2021/12/20 11:59:04;;;;;;;19.60;8.82;;;;;;;;;;5034895;28;20084;-80
2021/12/20 12:01:31;;;;;;;20.33;8.50;;;;;;;;;;5035289;28;20046;-80
2021/12/20 12:03:59;;;;;;;20.00;8.85;;;;;;;;;;5032465;28;20111;-82
2021/12/20 12:06:27;;;;;;;17.80;8.55;;;;;;;;;;5031961;28;20053;-80
2021/12/20 12:08:59;;;;;;;20.55;8.93;;;;;;;;;;5033459;28;20420;-80
2021/12/20 12:11:34;;;;;;;18.83;8.65;;;;;;;;;;5033855;28;20048;-78
2021/12/20 12:14:35;;;;;;;16.58;8.27;;;;;;;;;;5038227;28;20105;-81
2021/12/20 12:17:08;;;;;;;15.45;7.75;;;;;;;;;;5026787;28;20080;-80
2021/12/20 12:19:44;;;;;;;18.52;8.80;;;;;;;;;;5033273;28;20412;-80
2021/12/20 12:22:34;;;;;;;17.27;8.07;;;;;;;;;;5032145;28;20045;-80
2021/12/20 12:25:07;;;;;;;18.83;8.30;;;;;;;;;;5018082;28;20104;-79
2021/12/20 12:27:35;;;;;;;18.88;9.15;;;;;;;;;;5012908;28;20096;-81
2021/12/20 12:30:30;;;;;;;17.25;9.02;;;;;;;;;;5017831;28;20053;-79
2021/12/20 12:33:19;;;;;;;17.98;7.90;;;;;;;;;;5021338;28;20646;-78
2021/12/20 12:35:51;;;;;;;20.20;9.68;;;;;;;;;;5032012;28;20140;-78
2021/12/20 12:38:21;;;;;;;19.17;9.48;;;;;;;;;;5031188;28;20053;-79
2021/12/20 12:40:51;;;;;;;17.02;7.82;;;;;;;;;;5034902;28;20049;-79
2021/12/20 12:43:21;;;;;;;15.90;7.28;;;;;;;;;;5041002;28;20584;-79
2021/12/20 12:45:52;;;;;;;20.20;8.68;;;;;;;;;;5044635;28;20081;-80
2021/12/20 12:48:39;;;;;;;16.08;6.32;;;;;;;;;;5035921;28;20417;-81
2021/12/20 12:51:08;;;;;;;15.50;8.00;;;;;;;;;;5037680;28;20057;-80
2021/12/20 12:53:40;;;;;;;14.45;6.78;;;;;;;;;;5033367;28;20038;-80
2021/12/20 12:56:35;;;;;;;13.60;6.45;;;;;;;;;;5037640;28;20049;-79
2021/12/20 12:59:24;;;;;;;15.52;8.35;;;;;;;;;;5034356;28;20645;-79
2021/12/20 13:01:53;;;;;;;17.05;7.57;;;;;;;;;;5034401;28;20073;-79
2021/12/20 13:04:20;;;;;;;11.68;5.13;;;;;;;;;;5035018;28;20096;-78
2021/12/20 13:06:48;;;;;;;9.77;4.70;;;;;;;;;;5034503;28;20045;-79
2021/12/20 13:09:15;;;;;;;9.68;4.35;;;;;;;;;;5034148;28;20060;-78
2021/12/20 13:11:44;;;;;;;8.65;3.92;;;;;;;;;;5036228;28;20038;-80
2021/12/20 13:14:16;;;;;;;10.68;4.03;;;;;;;;;;5042706;28;20076;-78
2021/12/20 13:19:13;;;;;;;7.78;3.58;;;;;;;;;;5036898;28;20037;-77
2021/12/20 13:21:54;;;;;;;9.82;4.28;;;;;;;;;;5019590;28;20408;-77
2021/12/20 13:24:21;;;;;;;9.60;4.75;;;;;;;;;;5016181;28;20112;-77
2021/12/20 13:26:49;;;;;;;10.63;4.72;;;;;;;;;;5016013;28;20057;-77
2021/12/20 13:29:17;;;;;;;10.35;4.63;;;;;;;;;;5016434;28;20595;-77
2021/12/20 13:31:44;;;;;;;9.38;4.72;;;;;;;;;;5015853;28;20104;-77
2021/12/20 13:34:14;;;;;;;14.75;5.72;;;;;;;;;;5016755;28;20046;-77
2021/12/20 13:36:50;;;;;;;13.82;6.82;;;;;;;;;;5016540;28;20046;-77
2021/12/20 13:39:17;;;;;;;17.05;8.10;;;;;;;;;;5016113;28;20065;-77
2021/12/20 13:41:44;;;;;;;14.68;8.43;;;;;;;;;;5015975;28;20504;-77
2021/12/20 13:44:16;;;;;;;18.05;10.40;;;;;;;;;;5018914;28;20054;-77
2021/12/20 13:46:46;;;;;;;13.55;7.03;;;;;;;;;;5025371;28;20037;-77
2021/12/20 13:49:15;;;;;;;11.18;5.00;;;;;;;;;;5033662;28;20041;-77
2021/12/20 13:51:44;;;;;;;10.50;5.60;;;;;;;;;;5035231;28;20045;-77
2021/12/20 13:54:24;;;;;;;11.70;5.50;;;;;;;;;;5032345;28;20038;-78
2021/12/20 13:56:53;;;;;;;12.45;5.15;;;;;;;;;;5033906;28;20061;-78
2021/12/20 13:59:27;;;;;;;10.88;5.47;;;;;;;;;;5033975;28;20634;-77
2021/12/20 14:01:55;;;;;;;9.25;4.80;;;;;;;;;;5023715;28;20093;-77
2021/12/20 14:04:30;;;;;;;11.20;4.97;;;;;;;;;;5033877;28;20068;-77
2021/12/20 14:06:59;;;;;;;10.60;5.18;;;;;;;;;;5036324;28;20057;-77
2021/12/20 14:09:35;;;;;;;11.43;6.25;;;;;;;;;;5034700;28;20055;-77
2021/12/20 14:12:10;;;;;;;11.43;5.55;;;;;;;;;;5035540;28;20666;-78
2021/12/20 14:14:55;;;;;;;12.13;5.82;;;;;;;;;;5032966;28;20046;-77
2021/12/20 14:17:21;;;;;;;10.77;4.68;;;;;;;;;;5031487;28;20073;-77
2021/12/20 14:20:06;;;;;;;14.23;5.20;;;;;;;;;;5032726;28;20064;-77
2021/12/20 14:22:50;;;;;;;11.40;4.70;;;;;;;;;;5031072;28;20121;-77
2021/12/20 14:25:17;;;;;;;12.75;4.35;;;;;;;;;;5030788;28;20084;-77
2021/12/20 14:27:59;;;;;;;11.10;4.70;;;;;;;;;;5033230;28;20076;-76
2021/12/20 14:30:27;;;;;;;6.95;3.30;;;;;;;;;;5035814;28;20130;-78
2021/12/20 14:32:54;;;;;;;8.57;3.63;;;;;;;;;;5034074;28;20052;-78
2021/12/20 14:35:36;;;;;;;8.70;3.75;;;;;;;;;;5033853;28;20080;-77
2021/12/20 14:38:24;;;;;;;14.60;5.25;;;;;;;;;;5032579;28;20117;-77
2021/12/20 14:40:51;;;;;;;10.35;3.40;;;;;;;;;;5032303;28;20067;-78
2021/12/20 14:43:19;;;;;;;8.43;3.78;;;;;;;;;;5033799;28;20053;-78
2021/12/20 14:45:51;;;;;;;11.77;4.28;;;;;;;;;;5034796;28;20064;-78
2021/12/20 14:48:28;;;;;;;7.07;3.42;;;;;;;;;;5030711;28;20041;-77
2021/12/20 14:50:56;;;;;;;8.40;4.38;;;;;;;;;;5028696;28;20116;-77